createdAt,value
2022-09-06T00:00:18.222Z,5.45
2022-09-06T00:02:45.921Z,6.53
2022-09-06T00:05:13.911Z,4.28
2022-09-06T00:07:41.568Z,4.20
2022-09-06T00:10:10.056Z,4.32
2022-09-06T00:12:38.234Z,8.13
2022-09-06T00:15:06.748Z,3.80
2022-09-06T00:17:34.070Z,5.15
2022-09-06T00:20:01.416Z,6.38
2022-09-06T00:22:28.421Z,5.35
2022-09-06T00:24:55.200Z,5.75
2022-09-06T00:27:22.344Z,4.53
2022-09-06T00:29:49.199Z,4.80
2022-09-06T00:32:16.053Z,6.30
2022-09-06T00:34:42.832Z,4.03
2022-09-06T00:37:09.591Z,4.72
2022-09-06T00:39:36.466Z,4.80
2022-09-06T00:42:08.456Z,3.58
2022-09-06T00:44:35.303Z,6.38
2022-09-06T00:47:02.927Z,5.47
2022-09-06T00:49:35.194Z,3.92
2022-09-06T00:52:09.547Z,5.10
2022-09-06T00:54:37.042Z,4.35
2022-09-06T00:57:04.487Z,4.53
2022-09-06T00:59:34.967Z,5.45
2022-09-06T01:02:01.911Z,6.63
2022-09-06T01:05:06.451Z,6.55
2022-09-06T01:09:06.592Z,7.07
2022-09-06T01:16:14.057Z,4.10
2022-09-06T01:19:27.057Z,7.93
2022-09-06T01:23:14.542Z,2.65
2022-09-06T01:30:17.577Z,6.13
2022-09-06T01:33:38.181Z,5.03
2022-09-06T01:36:16.055Z,5.82
2022-09-06T01:38:47.246Z,5.97
2022-09-06T01:41:22.254Z,5.25
2022-09-06T01:43:57.071Z,5.60
2022-09-06T01:46:41.048Z,6.35
2022-09-06T01:49:52.606Z,4.93
2022-09-06T01:52:40.218Z,6.05
2022-09-06T01:55:16.058Z,5.32
2022-09-06T01:57:51.803Z,4.90
2022-09-06T02:00:20.507Z,4.40
2022-09-06T02:03:10.875Z,6.25
2022-09-06T02:05:51.276Z,7.65
2022-09-06T02:08:36.256Z,8.57
2022-09-06T02:11:06.342Z,7.50
2022-09-06T02:13:39.344Z,5.22
2022-09-06T02:16:08.332Z,3.33
2022-09-06T02:18:40.423Z,6.90
2022-09-06T02:21:09.141Z,5.03
2022-09-06T02:23:40.412Z,5.57
2022-09-06T02:26:14.623Z,5.30
2022-09-06T02:28:41.614Z,4.70
2022-09-06T02:31:17.127Z,8.18
2022-09-06T02:33:46.491Z,4.50
2022-09-06T02:36:15.748Z,7.63
2022-09-06T02:38:44.424Z,5.70
2022-09-06T02:41:12.861Z,7.55
2022-09-06T02:43:40.747Z,9.07
2022-09-06T02:46:07.572Z,5.82
2022-09-06T02:48:34.398Z,3.60
2022-09-06T02:51:06.031Z,5.32
2022-09-06T02:53:33.742Z,4.55
2022-09-06T02:56:01.522Z,6.50
2022-09-06T02:58:28.542Z,4.18
2022-09-06T03:00:55.520Z,10.27
2022-09-06T03:03:23.423Z,4.25
2022-09-06T03:05:52.581Z,7.00
2022-09-06T03:08:22.187Z,5.82
2022-09-06T03:10:54.863Z,4.82
2022-09-06T03:13:22.236Z,4.00
2022-09-06T03:15:58.628Z,5.15
2022-09-06T03:18:27.917Z,5.20
2022-09-06T03:20:56.122Z,5.93
2022-09-06T03:23:25.966Z,5.88
2022-09-06T03:25:53.130Z,6.67
2022-09-06T03:28:20.957Z,8.05
2022-09-06T03:30:50.905Z,14.07
2022-09-06T03:33:18.298Z,6.90
2022-09-06T03:35:57.844Z,6.10
2022-09-06T03:38:27.527Z,8.07
2022-09-06T03:40:55.473Z,8.70
2022-09-06T03:43:24.494Z,6.10
2022-09-06T03:45:56.930Z,6.57
2022-09-06T03:48:27.357Z,6.55
2022-09-06T03:50:57.363Z,5.88
2022-09-06T03:53:26.471Z,10.43
2022-09-06T03:55:55.685Z,6.82
2022-09-06T03:58:24.738Z,7.07
2022-09-06T04:01:10.848Z,9.43
2022-09-06T04:03:38.469Z,5.90
2022-09-06T04:06:06.990Z,6.70
2022-09-06T04:08:35.347Z,14.88
2022-09-06T04:11:02.138Z,5.00
2022-09-06T04:13:30.301Z,6.63
2022-09-06T04:15:57.650Z,5.45
2022-09-06T04:18:25.054Z,6.22
2022-09-06T04:20:55.865Z,4.93
2022-09-06T04:25:54.287Z,7.90
2022-09-06T04:28:22.007Z,9.63
2022-09-06T04:30:54.540Z,13.25
2022-09-06T04:33:25.785Z,7.47
2022-09-06T04:35:54.607Z,10.90
2022-09-06T04:38:21.430Z,9.55
2022-09-06T04:40:48.230Z,8.02
2022-09-06T04:43:15.596Z,9.10
2022-09-06T04:45:43.683Z,9.15
2022-09-06T04:48:11.279Z,10.43
2022-09-06T04:50:38.631Z,9.27
2022-09-06T04:53:06.077Z,6.68
2022-09-06T04:55:34.227Z,4.65
2022-09-06T04:58:01.423Z,12.63
2022-09-06T05:00:30.166Z,8.27
2022-09-06T05:02:57.564Z,9.05
2022-09-06T05:05:25.251Z,12.02
2022-09-06T05:07:53.951Z,11.55
2022-09-06T05:10:21.587Z,13.23
2022-09-06T05:12:53.660Z,13.20
2022-09-06T05:15:22.691Z,14.93
2022-09-06T05:17:49.591Z,15.13
2022-09-06T05:20:16.795Z,10.45
2022-09-06T05:22:43.618Z,11.13
2022-09-06T05:25:11.394Z,10.70
2022-09-06T05:27:38.158Z,7.47
2022-09-06T05:30:05.563Z,8.77
2022-09-06T05:32:32.386Z,11.48
2022-09-06T05:34:59.155Z,7.32
2022-09-06T05:37:25.921Z,9.13
2022-09-06T05:39:52.868Z,14.38
2022-09-06T05:42:19.707Z,9.48
2022-09-06T05:44:46.738Z,10.88
2022-09-06T05:47:13.607Z,12.35
2022-09-06T05:49:40.524Z,10.95
2022-09-06T05:52:07.310Z,10.55
2022-09-06T05:54:34.120Z,11.20
2022-09-06T05:57:00.896Z,13.02
2022-09-06T05:59:27.669Z,12.57
2022-09-06T06:01:55.272Z,13.82
2022-09-06T06:04:22.570Z,8.52
2022-09-06T06:06:49.812Z,13.98
2022-09-06T06:09:16.995Z,10.23
2022-09-06T06:11:43.937Z,11.90
2022-09-06T06:14:10.788Z,13.95
2022-09-06T06:16:37.725Z,14.32
2022-09-06T06:19:04.618Z,10.32
2022-09-06T06:21:33.425Z,7.97
2022-09-06T06:24:03.582Z,12.05
2022-09-06T06:26:34.359Z,10.88
2022-09-06T06:31:33.464Z,10.30
2022-09-06T06:34:03.651Z,8.88
2022-09-06T06:36:33.721Z,9.95
2022-09-06T06:39:02.578Z,11.95
2022-09-06T06:41:31.805Z,11.88
2022-09-06T06:44:01.696Z,11.75
2022-09-06T06:46:35.320Z,13.15
2022-09-06T06:49:02.273Z,10.68
2022-09-06T06:51:32.379Z,9.13
2022-09-06T06:53:59.904Z,13.88
2022-09-06T06:56:36.238Z,8.32
2022-09-06T06:59:05.711Z,9.40
2022-09-06T07:01:35.131Z,13.13
2022-09-06T07:04:02.711Z,13.40
2022-09-06T07:09:19.312Z,10.68
2022-09-06T07:11:48.710Z,9.52
2022-09-06T07:14:17.496Z,10.32
2022-09-06T07:16:45.000Z,13.50
2022-09-06T07:22:02.765Z,9.23
2022-09-06T07:24:32.007Z,9.98
2022-09-06T07:29:45.607Z,14.55
2022-09-06T07:32:12.599Z,10.60
2022-09-06T07:34:39.665Z,9.57
2022-09-06T07:37:06.474Z,11.30
2022-09-06T07:39:33.332Z,9.23
2022-09-06T07:42:00.161Z,11.77
2022-09-06T07:44:28.758Z,16.40
2022-09-06T07:55:16.439Z,7.25
2022-09-06T07:57:43.270Z,10.50
2022-09-06T08:00:11.563Z,11.90
2022-09-06T08:02:40.715Z,9.45
2022-09-06T08:10:42.047Z,12.80
2022-09-06T08:13:08.812Z,9.15
2022-09-06T08:15:35.594Z,11.05
2022-09-06T08:18:02.355Z,12.60
2022-09-06T08:20:29.169Z,10.43
2022-09-06T08:22:55.913Z,10.95
2022-09-06T08:25:22.859Z,12.07
2022-09-06T08:27:49.627Z,16.85
2022-09-06T08:30:16.525Z,8.57
2022-09-06T08:32:43.365Z,11.68
2022-09-06T08:35:10.521Z,9.57
2022-09-06T08:37:37.303Z,10.90
2022-09-06T08:40:04.489Z,11.50
2022-09-06T08:42:31.897Z,9.85
2022-09-06T08:45:00.466Z,9.43
2022-09-06T08:47:27.417Z,11.88
2022-09-06T08:50:07.598Z,10.48
2022-09-06T08:53:17.217Z,17.50
2022-09-06T08:55:59.799Z,16.53
2022-09-06T08:58:40.334Z,15.65
2022-09-06T09:01:15.871Z,16.23
2022-09-06T09:03:44.427Z,10.55
2022-09-06T09:06:11.471Z,10.32
2022-09-06T09:09:07.084Z,11.60
2022-09-06T09:11:36.045Z,15.48
2022-09-06T09:14:17.787Z,9.82
2022-09-06T09:16:44.786Z,12.63
2022-09-06T09:19:11.583Z,10.60
2022-09-06T09:21:40.385Z,9.20
2022-09-06T09:24:13.473Z,11.55
2022-09-06T09:27:04.081Z,6.28
2022-09-06T09:29:35.684Z,7.15
2022-09-06T09:32:03.390Z,5.60
2022-09-06T09:34:37.997Z,6.15
2022-09-06T09:40:25.924Z,4.90
2022-09-06T09:42:57.894Z,10.13
2022-09-06T09:45:30.536Z,4.65
2022-09-06T09:47:57.488Z,12.25
2022-09-06T09:50:34.668Z,6.45
2022-09-06T09:53:11.530Z,9.95
2022-09-06T09:55:39.312Z,6.88
2022-09-06T09:58:15.696Z,5.25
2022-09-06T10:00:43.308Z,7.10
2022-09-06T10:03:31.223Z,5.13
2022-09-06T10:06:02.430Z,5.03
2022-09-06T10:08:33.394Z,7.47
2022-09-06T10:13:30.105Z,5.93
2022-09-06T10:15:58.999Z,5.93
2022-09-06T10:18:33.131Z,6.63
2022-09-06T10:21:09.342Z,5.07
2022-09-06T10:24:27.754Z,8.23
2022-09-06T10:27:02.899Z,11.18
2022-09-06T10:29:55.254Z,10.07
2022-09-06T10:33:00.247Z,9.30
2022-09-06T10:35:38.434Z,7.85
2022-09-06T10:38:39.710Z,7.80
2022-09-06T10:41:48.506Z,5.40
2022-09-06T10:44:26.990Z,6.32
2022-09-06T10:47:13.915Z,9.30
2022-09-06T10:49:45.967Z,9.45
2022-09-06T10:52:21.014Z,7.72
2022-09-06T10:54:48.222Z,10.27
2022-09-06T11:00:14.679Z,9.60
2022-09-06T11:05:54.656Z,8.38
2022-09-06T11:08:58.312Z,7.78
2022-09-06T11:11:45.186Z,7.50
2022-09-06T11:14:14.923Z,8.38
2022-09-06T11:17:35.636Z,14.05
2022-09-06T11:23:25.400Z,7.80
2022-09-06T11:26:29.356Z,8.98
2022-09-06T11:29:04.788Z,7.80
2022-09-06T11:34:54.965Z,7.68
2022-09-06T11:37:30.624Z,7.97
2022-09-06T11:40:28.377Z,12.07
2022-09-06T11:42:55.567Z,8.40
2022-09-06T11:45:48.370Z,7.78
2022-09-06T11:48:24.265Z,8.95
2022-09-06T11:50:53.900Z,8.77
2022-09-06T11:53:27.977Z,6.00
2022-09-06T11:56:00.815Z,9.00
2022-09-06T11:58:56.265Z,8.50
2022-09-06T12:01:22.918Z,4.60
2022-09-06T12:04:06.540Z,9.38
2022-09-06T12:06:43.647Z,8.70
2022-09-06T12:09:53.090Z,16.00
2022-09-06T12:12:38.443Z,9.90
2022-09-06T12:15:29.759Z,8.23
2022-09-06T12:17:59.626Z,9.88
2022-09-06T12:20:48.120Z,9.32
2022-09-06T12:23:36.512Z,9.27
2022-09-06T12:26:09.396Z,11.07
2022-09-06T12:28:48.351Z,6.78
2022-09-06T12:31:43.732Z,8.60
2022-09-06T12:34:22.630Z,9.45
2022-09-06T12:37:10.977Z,9.10
2022-09-06T12:39:37.870Z,13.05
2022-09-06T12:42:11.726Z,7.75
2022-09-06T12:44:49.148Z,9.73
2022-09-06T12:47:31.359Z,11.20
2022-09-06T12:50:21.280Z,9.80
2022-09-06T12:53:00.430Z,8.63
2022-09-06T12:55:37.422Z,7.57
2022-09-06T12:58:11.551Z,7.63
2022-09-06T13:00:51.391Z,8.75
2022-09-06T13:04:00.036Z,12.85
2022-09-06T13:06:53.010Z,12.73
2022-09-06T13:09:42.069Z,9.30
2022-09-06T13:13:10.444Z,12.15
2022-09-06T13:16:10.990Z,8.20
2022-09-06T13:23:11.790Z,10.68
2022-09-06T13:27:10.899Z,10.88
2022-09-06T13:29:37.696Z,6.47
2022-09-06T13:32:09.020Z,10.85
2022-09-06T13:35:06.580Z,9.25
2022-09-06T13:41:29.914Z,10.88
2022-09-06T13:44:04.347Z,7.93
2022-09-06T13:46:33.210Z,9.65
2022-09-06T13:49:00.359Z,8.20
2022-09-06T13:51:27.691Z,7.38
2022-09-06T13:54:10.647Z,5.72
2022-09-06T13:56:39.218Z,7.05
2022-09-06T13:59:06.960Z,10.20
2022-09-06T14:01:34.291Z,6.88
2022-09-06T14:04:01.503Z,6.72
2022-09-06T14:06:28.399Z,8.98
2022-09-06T14:09:06.861Z,5.65
2022-09-06T14:11:34.278Z,7.40
2022-09-06T14:14:01.282Z,8.45
2022-09-06T14:16:28.132Z,13.80
2022-09-06T14:18:54.951Z,8.90
2022-09-06T14:21:22.020Z,8.90
2022-09-06T14:23:51.055Z,9.82
2022-09-06T14:26:19.024Z,5.90
2022-09-06T14:28:45.877Z,7.30
2022-09-06T14:31:17.008Z,7.97
2022-09-06T14:33:43.919Z,10.13
2022-09-06T14:36:15.839Z,9.68
2022-09-06T14:38:44.423Z,12.07
2022-09-06T14:41:14.495Z,8.70
2022-09-06T14:43:48.668Z,10.82
2022-09-06T14:46:18.197Z,10.57
2022-09-06T14:48:46.532Z,8.30
2022-09-06T14:51:22.116Z,11.90
2022-09-06T14:53:52.544Z,9.40
2022-09-06T14:56:21.035Z,7.20
2022-09-06T14:58:47.972Z,8.13
2022-09-06T15:01:21.547Z,9.65
2022-09-06T15:03:53.822Z,7.35
2022-09-06T15:06:22.864Z,6.22
2022-09-06T15:08:50.624Z,6.65
2022-09-06T15:11:40.050Z,6.97
2022-09-06T15:14:17.428Z,7.28
2022-09-06T15:16:46.485Z,7.28
2022-09-06T15:19:14.222Z,6.80
2022-09-06T15:21:41.143Z,7.22
2022-09-06T15:24:11.749Z,9.85
2022-09-06T15:26:43.054Z,5.93
2022-09-06T15:29:13.959Z,7.72
2022-09-06T15:31:42.495Z,8.73
2022-09-06T15:34:10.402Z,6.88
2022-09-06T15:36:38.201Z,5.72
2022-09-06T15:39:06.433Z,6.75
2022-09-06T15:41:36.359Z,6.05
2022-09-06T15:44:18.752Z,5.18
2022-09-06T15:46:52.069Z,5.80
2022-09-06T15:49:28.291Z,5.38
2022-09-06T15:51:58.073Z,4.78
2022-09-06T15:54:45.167Z,7.37
2022-09-06T15:57:13.228Z,4.38
2022-09-06T15:59:41.002Z,7.18
2022-09-06T16:02:09.229Z,6.28
2022-09-06T16:04:36.042Z,5.50
2022-09-06T16:07:03.407Z,5.47
2022-09-06T16:09:30.299Z,4.93
2022-09-06T16:11:57.183Z,5.35
2022-09-06T16:14:23.995Z,3.70
2022-09-06T16:16:54.884Z,8.02
2022-09-06T16:19:21.963Z,5.10
2022-09-06T16:21:49.588Z,6.88
2022-09-06T16:24:18.542Z,6.05
2022-09-06T16:26:46.678Z,4.00
2022-09-06T16:29:16.367Z,7.13
2022-09-06T16:31:43.409Z,5.97
2022-09-06T16:34:11.757Z,9.20
2022-09-06T16:36:39.034Z,8.65
2022-09-06T16:39:07.238Z,4.57
2022-09-06T16:41:46.124Z,8.07
2022-09-06T16:44:17.385Z,6.38
2022-09-06T16:46:49.641Z,8.45
2022-09-06T16:49:17.644Z,7.72
2022-09-06T16:51:45.684Z,3.88
2022-09-06T16:54:13.898Z,8.13
2022-09-06T16:56:41.430Z,7.75
2022-09-06T16:59:10.483Z,7.07
2022-09-06T17:01:42.472Z,3.92
2022-09-06T17:04:10.077Z,6.70
2022-09-06T17:06:44.072Z,7.13
2022-09-06T17:09:16.454Z,9.30
2022-09-06T17:11:43.352Z,5.95
2022-09-06T17:14:10.189Z,3.58
2022-09-06T17:16:55.605Z,6.65
2022-09-06T17:19:22.452Z,6.20
2022-09-06T17:21:49.250Z,6.18
2022-09-06T17:24:16.515Z,3.95
2022-09-06T17:26:43.299Z,4.78
2022-09-06T17:29:10.485Z,4.32
2022-09-06T17:31:37.800Z,3.08
2022-09-06T17:34:06.207Z,7.00
2022-09-06T17:36:33.772Z,4.03
2022-09-06T17:39:21.278Z,5.65
2022-09-06T17:41:52.165Z,2.47
2022-09-06T17:44:22.732Z,3.17
2022-09-06T17:47:11.498Z,3.78
2022-09-06T17:49:36.741Z,4.95
2022-09-06T17:52:03.746Z,5.20
2022-09-06T17:54:31.701Z,3.35
2022-09-06T17:56:58.518Z,2.47
2022-09-06T17:59:25.395Z,2.80
2022-09-06T18:01:52.447Z,3.47
2022-09-06T18:04:19.432Z,3.25
2022-09-06T18:06:47.443Z,1.98
2022-09-06T18:09:17.458Z,2.50
2022-09-06T18:11:46.696Z,2.10
2022-09-06T18:14:17.768Z,4.47
2022-09-06T18:16:49.142Z,1.98
2022-09-06T18:19:16.526Z,3.67
2022-09-06T18:21:43.486Z,4.68
2022-09-06T18:24:13.557Z,4.50
2022-09-06T18:26:41.454Z,3.97
2022-09-06T18:29:11.935Z,4.00
2022-09-06T18:31:39.912Z,8.32
2022-09-06T18:34:08.771Z,5.03
2022-09-06T18:36:35.581Z,4.85
2022-09-06T18:39:04.726Z,3.05
2022-09-06T18:41:52.024Z,3.58
2022-09-06T18:44:19.253Z,2.28
2022-09-06T18:46:46.135Z,4.00
2022-09-06T18:49:15.157Z,4.25
2022-09-06T18:51:42.659Z,5.68
2022-09-06T18:54:10.855Z,3.65
2022-09-06T18:56:38.394Z,4.22
2022-09-06T18:59:05.656Z,3.13
2022-09-06T19:01:34.678Z,3.40
2022-09-06T19:04:03.036Z,2.90
2022-09-06T19:06:32.312Z,2.47
2022-09-06T19:09:02.029Z,2.80
2022-09-06T19:11:29.142Z,5.90
2022-09-06T19:13:57.542Z,2.38
2022-09-06T19:16:27.403Z,2.65
2022-09-06T19:18:56.638Z,2.67
2022-09-06T19:21:25.452Z,5.72
2022-09-06T19:23:58.342Z,2.85
2022-09-06T19:26:28.340Z,3.15
2022-09-06T19:29:01.975Z,2.63
2022-09-06T19:31:32.884Z,3.03
2022-09-06T19:34:00.179Z,4.65
2022-09-06T19:36:29.373Z,4.13
2022-09-06T19:39:05.087Z,5.07
2022-09-06T19:41:38.232Z,4.45
2022-09-06T19:44:08.396Z,4.35
2022-09-06T19:52:48.351Z,5.40
2022-09-06T20:05:16.891Z,3.53
2022-09-06T20:11:19.042Z,4.68
2022-09-06T20:14:12.045Z,3.10
2022-09-06T20:17:22.727Z,6.43
2022-09-06T20:20:21.327Z,3.40
2022-09-06T20:22:57.974Z,6.40
2022-09-06T20:29:21.156Z,3.33
2022-09-06T20:31:48.021Z,4.78
2022-09-06T20:34:18.374Z,3.75
2022-09-06T20:36:45.130Z,6.18
2022-09-06T20:39:11.916Z,5.38
2022-09-06T20:41:38.699Z,6.93
2022-09-06T20:44:05.556Z,5.18
2022-09-06T20:46:35.344Z,8.35
2022-09-06T20:49:04.826Z,5.32
2022-09-06T20:51:34.312Z,7.45
2022-09-06T20:54:04.311Z,5.07
2022-09-06T20:56:34.874Z,6.28
2022-09-06T20:59:05.082Z,3.47
2022-09-06T21:01:35.752Z,8.55
2022-09-06T21:06:35.378Z,5.32
2022-09-06T21:09:09.680Z,5.85
2022-09-06T21:11:36.890Z,7.90
2022-09-06T21:14:04.960Z,5.13
2022-09-06T21:16:32.197Z,5.35
2022-09-06T21:19:02.489Z,4.43
2022-09-06T21:21:31.192Z,6.40
2022-09-06T21:23:59.919Z,4.43
2022-09-06T21:26:26.730Z,5.60
2022-09-06T21:28:54.286Z,4.15
2022-09-06T21:31:24.438Z,6.53
2022-09-06T21:33:54.193Z,7.63
2022-09-06T21:36:30.955Z,6.90
2022-09-06T21:39:01.687Z,7.15
2022-09-06T21:44:00.878Z,3.45
2022-09-06T21:46:33.593Z,3.80
2022-09-06T21:49:12.856Z,3.42
2022-09-06T21:51:40.545Z,3.25
2022-09-06T21:54:07.571Z,6.57
2022-09-06T21:56:37.347Z,6.88
2022-09-06T21:59:05.975Z,7.65
2022-09-06T22:01:35.931Z,7.70
2022-09-06T22:04:03.878Z,6.83
2022-09-06T22:06:32.682Z,6.38
2022-09-06T22:09:02.515Z,5.25
2022-09-06T22:11:32.515Z,6.18
2022-09-06T22:14:05.596Z,5.30
2022-09-06T22:16:36.718Z,7.25
2022-09-06T22:19:05.254Z,3.40
2022-09-06T22:21:33.292Z,4.75
2022-09-06T22:24:03.474Z,5.22
2022-09-06T22:26:33.179Z,8.80
2022-09-06T22:29:03.307Z,7.88
2022-09-06T22:31:32.603Z,6.57
2022-09-06T22:34:00.127Z,7.10
2022-09-06T22:36:27.586Z,9.43
2022-09-06T22:38:57.820Z,5.35
2022-09-06T22:41:27.064Z,4.13
2022-09-06T22:43:54.007Z,7.50
2022-09-06T22:46:20.856Z,5.97
2022-09-06T22:48:47.727Z,4.82
2022-09-06T22:51:14.615Z,4.43
2022-09-06T22:53:41.449Z,5.43
2022-09-06T22:56:08.254Z,5.25
2022-09-06T22:58:35.502Z,6.03
2022-09-06T23:01:15.114Z,4.18
2022-09-06T23:03:42.331Z,6.70
2022-09-06T23:06:09.754Z,5.47
2022-09-06T23:08:38.916Z,5.38
2022-09-06T23:11:09.581Z,5.25
2022-09-06T23:13:37.029Z,4.25
2022-09-06T23:16:10.077Z,7.15
2022-09-06T23:18:36.944Z,4.88
2022-09-06T23:21:13.700Z,6.20
2022-09-06T23:23:42.093Z,7.22
2022-09-06T23:26:20.073Z,8.35
2022-09-06T23:28:47.010Z,5.30
2022-09-06T23:31:16.683Z,7.78
2022-09-06T23:33:43.721Z,6.67
2022-09-06T23:36:14.499Z,5.22
2022-09-06T23:41:10.263Z,7.88
2022-09-06T23:43:39.290Z,5.22
2022-09-06T23:46:06.736Z,6.43
2022-09-06T23:48:34.850Z,6.85
2022-09-06T23:51:02.257Z,4.70
2022-09-06T23:53:29.169Z,6.25
2022-09-06T23:55:55.987Z,4.05
2022-09-06T23:58:22.984Z,3.45
